Navios*hios — SXJH — position and weather

sailwx.info

Track history (hours):
 
Tides and Currents Weather Stations Pressure Air Temp Water Temp Dewpoint Dewpoint Depression Visibility Wind Speed Wind Dir Waves Ship Positions

Navios*hios

Last reported at 2014-Nov-03 05:30 UTC. Time now 2014-Nov-21 20:36 UTC.
Position N 36°15' W 028°43'.
Warning: this ship's position is 18 days out of date.

Length 183 m; draft 9.2 m.

Type: Cargo ship. MMSI: 240149000.

Date/timePositionNaut miles runAvg speedWind from/ knotsBaromVisibWave heightAir tempDewpointWater temp
2014-Nov-03 05:30N 36°15' W 028°43'7812.3
2014-Nov-02 23:08N 36°45' W 027°14'812.5
2014-Nov-02 22:29N 36°48' W 027°04'1312.5
2014-Nov-02 21:26N 36°54' W 026°49'1112.3
2014-Nov-02 20:33N 36°58' W 026°37'1212.1
2014-Nov-02 19:33N 37°02' W 026°23'1212.2
2014-Nov-02 18:33N 37°07' W 026°09'1212.1
2014-Nov-02 17:34N 37°12' W 025°55'1212.1
2014-Nov-02 16:33N 37°16' W 025°41'1212.2
2014-Nov-02 15:34N 37°21' W 025°27'1211.9
2014-Nov-02 14:33N 37°26' W 025°13'1212.2
2014-Nov-02 13:33N 37°31' W 024°59'1212.4
2014-Nov-02 12:33N 37°37' W 024°45'1211.9
2014-Nov-02 11:33N 37°42' W 024°32'1211.9
2014-Nov-02 10:34N 37°48' W 024°19'1211.5
2014-Nov-02 09:33N 37°54' W 024°06'1111.4
2014-Nov-02 08:33N 37°59' W 023°53'  
2014-Oct-30 01:09N 43°48' W 005°48'811.2
2014-Oct-30 00:28N 43°42' W 005°42'8 7.5
2014-Oct-29 23:28N 43°35' W 005°41'0 0.4
2014-Oct-29 22:32N 43°35' W 005°41'0 0.0
2014-Oct-29 21:26N 43°35' W 005°41'0 0.0
2014-Oct-29 20:14N 43°35' W 005°41'0 0.0
2014-Oct-29 19:14N 43°35' W 005°41'0 0.0
2014-Oct-29 18:14N 43°35' W 005°41'0 0.0
2014-Oct-29 17:26N 43°35' W 005°41'0 0.0
2014-Oct-29 16:20N 43°35' W 005°41'0 0.0
2014-Oct-29 15:32N 43°35' W 005°41'0 0.0
2014-Oct-29 14:32N 43°35' W 005°41'0 0.0
2014-Oct-29 12:32N 43°35' W 005°41'0 0.0
2014-Oct-29 11:26N 43°35' W 005°41'0 0.0
2014-Oct-29 10:26N 43°35' W 005°41'0 0.0
2014-Oct-29 09:14N 43°35' W 005°41'0 0.0
2014-Oct-29 08:26N 43°35' W 005°41'0 0.0
2014-Oct-29 07:32N 43°35' W 005°41'0 0.0
2014-Oct-29 06:32N 43°35' W 005°41'0 0.0
2014-Oct-29 05:32N 43°35' W 005°41'0 0.0
2014-Oct-29 04:32N 43°35' W 005°41'0 0.0
2014-Oct-29 03:20N 43°35' W 005°41'0 0.0
2014-Oct-29 02:32N 43°35' W 005°41'0 0.0
2014-Oct-29 01:32N 43°35' W 005°41'0 0.0
2014-Oct-29 00:32N 43°35' W 005°41'0 0.0
2014-Oct-28 23:20N 43°35' W 005°41'0 0.0
2014-Oct-28 22:32N 43°35' W 005°41'0 0.0
2014-Oct-28 21:32N 43°35' W 005°41'0 0.0
2014-Oct-28 20:32N 43°35' W 005°41'0 0.0
2014-Oct-28 19:20N 43°35' W 005°41'0 0.0
2014-Oct-28 18:26N 43°35' W 005°41'0 0.0
2014-Oct-28 16:25N 43°35' W 005°41'0 0.0
2014-Oct-28 15:07N 43°35' W 005°41'0 0.0
2014-Oct-28 14:31N 43°35' W 005°41'0 0.0
2014-Oct-28 13:31N 43°35' W 005°41'0 0.0
2014-Oct-28 12:31N 43°35' W 005°41'0 0.0
2014-Oct-28 11:25N 43°35' W 005°41'0 0.0
2014-Oct-28 10:25N 43°35' W 005°41'0 0.0
2014-Oct-28 08:25N 43°35' W 005°41'0 0.0
2014-Oct-28 07:31N 43°35' W 005°41'0 0.0
2014-Oct-28 06:25N 43°35' W 005°41'0 0.0
2014-Oct-28 05:31N 43°35' W 005°41'0 0.0
2014-Oct-28 04:31N 43°35' W 005°41'0 0.0
2014-Oct-28 03:25N 43°35' W 005°41'0 0.0
2014-Oct-28 02:25N 43°35' W 005°41'0 0.0
2014-Oct-28 01:31N 43°35' W 005°41'0 0.0
2014-Oct-27 23:31N 43°35' W 005°41'0 0.0
2014-Oct-27 17:19N 43°35' W 005°41'1 0.3
2014-Oct-27 15:34N 43°35' W 005°40'2 0.2
2014-Oct-26 23:31N 43°37' W 005°42'0 0.0
2014-Oct-26 22:25N 43°37' W 005°42'0 0.0
2014-Oct-26 21:07N 43°37' W 005°42'0 0.0
2014-Oct-26 20:31N 43°37' W 005°42'0 0.0
2014-Oct-26 17:19N 43°37' W 005°42'0 0.0
2014-Oct-26 16:30N 43°37' W 005°42'3 3.5
2014-Oct-26 15:33N 43°40' W 005°40'1110.9
2014-Oct-26 14:32N 43°48' W 005°50'1511.9
2014-Oct-26 13:16N 43°54' W 006°09'358 9.4
2014-Oct-24 23:16N 38°36' W 009°49'912.1
2014-Oct-24 22:32N 38°27' W 009°46'1212.5
2014-Oct-24 21:32N 38°15' W 009°43'1212.4
2014-Oct-24 20:33N 38°03' W 009°39'1212.3
2014-Oct-24 19:33N 37°51' W 009°36'1211.9
2014-Oct-24 18:32N 37°39' W 009°32'1212.1
2014-Oct-24 17:33N 37°28' W 009°29'2412.3
2014-Oct-24 15:33N 37°04' W 009°22'1212.2
2014-Oct-24 14:33N 36°52' W 009°18'2323.0
2014-Oct-24 13:33N 36°40' W 008°53'1 1.4
2014-Oct-24 12:33N 36°40' W 008°52'1211.9
2014-Oct-24 11:33N 36°28' W 008°54'1612.0
2014-Oct-24 10:12N 36°12' W 008°58'811.8
2014-Oct-24 09:33N 36°04' W 008°58'1411.6
2014-Oct-24 08:19N 35°50' W 008°57'2411.0
2014-Oct-24 06:11N 35°27' W 008°58'  
Track history (hours):
 
Tides and Currents Weather Stations Pressure Air Temp Water Temp Dewpoint Dewpoint Depression Visibility Wind Speed Wind Dir Waves Ship Positions

Navios*hios

Last reported at 2014-Nov-03 05:30 UTC. Time now 2014-Nov-21 20:36 UTC.
Position N 36°15' W 028°43'.
Warning: this ship's position is 18 days out of date.

Length 183 m; draft 9.2 m.

Type: Cargo ship. MMSI: 240149000.

Date/timePositionNaut miles runAvg speedWind from/ knotsBaromVisibWave heightAir tempDewpointWater temp
2014-Nov-03 05:30N 36°15' W 028°43'7812.3
2014-Nov-02 23:08N 36°45' W 027°14'812.5
2014-Nov-02 22:29N 36°48' W 027°04'1312.5
2014-Nov-02 21:26N 36°54' W 026°49'1112.3
2014-Nov-02 20:33N 36°58' W 026°37'1212.1
2014-Nov-02 19:33N 37°02' W 026°23'1212.2
2014-Nov-02 18:33N 37°07' W 026°09'1212.1
2014-Nov-02 17:34N 37°12' W 025°55'1212.1
2014-Nov-02 16:33N 37°16' W 025°41'1212.2
2014-Nov-02 15:34N 37°21' W 025°27'1211.9
2014-Nov-02 14:33N 37°26' W 025°13'1212.2
2014-Nov-02 13:33N 37°31' W 024°59'1212.4
2014-Nov-02 12:33N 37°37' W 024°45'1211.9
2014-Nov-02 11:33N 37°42' W 024°32'1211.9
2014-Nov-02 10:34N 37°48' W 024°19'1211.5
2014-Nov-02 09:33N 37°54' W 024°06'1111.4
2014-Nov-02 08:33N 37°59' W 023°53'  
2014-Oct-30 01:09N 43°48' W 005°48'811.2
2014-Oct-30 00:28N 43°42' W 005°42'8 7.5
2014-Oct-29 23:28N 43°35' W 005°41'0 0.4
2014-Oct-29 22:32N 43°35' W 005°41'0 0.0
2014-Oct-29 21:26N 43°35' W 005°41'0 0.0
2014-Oct-29 20:14N 43°35' W 005°41'0 0.0
2014-Oct-29 19:14N 43°35' W 005°41'0 0.0
2014-Oct-29 18:14N 43°35' W 005°41'0 0.0
2014-Oct-29 17:26N 43°35' W 005°41'0 0.0
2014-Oct-29 16:20N 43°35' W 005°41'0 0.0
2014-Oct-29 15:32N 43°35' W 005°41'0 0.0
2014-Oct-29 14:32N 43°35' W 005°41'0 0.0
2014-Oct-29 12:32N 43°35' W 005°41'0 0.0
2014-Oct-29 11:26N 43°35' W 005°41'0 0.0
2014-Oct-29 10:26N 43°35' W 005°41'0 0.0
2014-Oct-29 09:14N 43°35' W 005°41'0 0.0
2014-Oct-29 08:26N 43°35' W 005°41'0 0.0
2014-Oct-29 07:32N 43°35' W 005°41'0 0.0
2014-Oct-29 06:32N 43°35' W 005°41'0 0.0
2014-Oct-29 05:32N 43°35' W 005°41'0 0.0
2014-Oct-29 04:32N 43°35' W 005°41'0 0.0
2014-Oct-29 03:20N 43°35' W 005°41'0 0.0
2014-Oct-29 02:32N 43°35' W 005°41'0 0.0
2014-Oct-29 01:32N 43°35' W 005°41'0 0.0
2014-Oct-29 00:32N 43°35' W 005°41'0 0.0
2014-Oct-28 23:20N 43°35' W 005°41'0 0.0
2014-Oct-28 22:32N 43°35' W 005°41'0 0.0
2014-Oct-28 21:32N 43°35' W 005°41'0 0.0
2014-Oct-28 20:32N 43°35' W 005°41'0 0.0
2014-Oct-28 19:20N 43°35' W 005°41'0 0.0
2014-Oct-28 18:26N 43°35' W 005°41'0 0.0
2014-Oct-28 16:25N 43°35' W 005°41'0 0.0
2014-Oct-28 15:07N 43°35' W 005°41'0 0.0
2014-Oct-28 14:31N 43°35' W 005°41'0 0.0
2014-Oct-28 13:31N 43°35' W 005°41'0 0.0
2014-Oct-28 12:31N 43°35' W 005°41'0 0.0
2014-Oct-28 11:25N 43°35' W 005°41'0 0.0
2014-Oct-28 10:25N 43°35' W 005°41'0 0.0
2014-Oct-28 08:25N 43°35' W 005°41'0 0.0
2014-Oct-28 07:31N 43°35' W 005°41'0 0.0
2014-Oct-28 06:25N 43°35' W 005°41'0 0.0
2014-Oct-28 05:31N 43°35' W 005°41'0 0.0
2014-Oct-28 04:31N 43°35' W 005°41'0 0.0
2014-Oct-28 03:25N 43°35' W 005°41'0 0.0
2014-Oct-28 02:25N 43°35' W 005°41'0 0.0
2014-Oct-28 01:31N 43°35' W 005°41'0 0.0
2014-Oct-27 23:31N 43°35' W 005°41'0 0.0
2014-Oct-27 17:19N 43°35' W 005°41'1 0.3
2014-Oct-27 15:34N 43°35' W 005°40'2 0.2
2014-Oct-26 23:31N 43°37' W 005°42'0 0.0
2014-Oct-26 22:25N 43°37' W 005°42'0 0.0
2014-Oct-26 21:07N 43°37' W 005°42'0 0.0
2014-Oct-26 20:31N 43°37' W 005°42'0 0.0
2014-Oct-26 17:19N 43°37' W 005°42'0 0.0
2014-Oct-26 16:30N 43°37' W 005°42'3 3.5
2014-Oct-26 15:33N 43°40' W 005°40'1110.9
2014-Oct-26 14:32N 43°48' W 005°50'1511.9
2014-Oct-26 13:16N 43°54' W 006°09'358 9.4
2014-Oct-24 23:16N 38°36' W 009°49'912.1
2014-Oct-24 22:32N 38°27' W 009°46'1212.5
2014-Oct-24 21:32N 38°15' W 009°43'1212.4
2014-Oct-24 20:33N 38°03' W 009°39'1212.3
2014-Oct-24 19:33N 37°51' W 009°36'1211.9
2014-Oct-24 18:32N 37°39' W 009°32'1212.1
2014-Oct-24 17:33N 37°28' W 009°29'2412.3
2014-Oct-24 15:33N 37°04' W 009°22'1212.2
2014-Oct-24 14:33N 36°52' W 009°18'2323.0
2014-Oct-24 13:33N 36°40' W 008°53'1 1.4
2014-Oct-24 12:33N 36°40' W 008°52'1211.9
2014-Oct-24 11:33N 36°28' W 008°54'1612.0
2014-Oct-24 10:12N 36°12' W 008°58'811.8
2014-Oct-24 09:33N 36°04' W 008°58'1411.6
2014-Oct-24 08:19N 35°50' W 008°57'2411.0
2014-Oct-24 06:11N 35°27' W 008°58'  

Dump ship's entire track history